Time;durP1;ratioP1;P1;durP2;ratioP2;P2;SDS_P1;SDS_P2;PMS_P1;PMS_P2;Temp;Humidity;BMP_temperature;BMP_pressure;BME280_temperature;BME280_humidity;BME280_pressure;Samples;Min_cycle;Max_cycle;Signal;HPM_P1;HPM_P2
2023/11/17 00:00:18;;;;;;;35.55;21.85;;;;;;;3.17;100.00;101487.91;5044128;28;20029;-73
2023/11/17 00:02:44;;;;;;;36.13;21.83;;;;;;;3.13;100.00;101495.63;5039622;28;20052;-72
2023/11/17 00:05:10;;;;;;;39.92;22.65;;;;;;;3.16;100.00;101496.56;5043290;28;20037;-72
2023/11/17 00:07:36;;;;;;;34.83;21.40;;;;;;;3.12;100.00;101503.38;5042089;28;20048;-73
2023/11/17 00:10:02;;;;;;;35.10;21.60;;;;;;;3.11;100.00;101496.38;5040823;28;20038;-73
2023/11/17 00:12:28;;;;;;;36.45;22.15;;;;;;;3.09;100.00;101509.38;5043702;28;20377;-72
2023/11/17 00:14:53;;;;;;;41.90;24.25;;;;;;;3.03;100.00;101509.09;5044768;28;20080;-72
2023/11/17 00:17:19;;;;;;;38.85;23.75;;;;;;;3.07;100.00;101510.09;5047236;28;20491;-72
2023/11/17 00:19:45;;;;;;;37.78;23.83;;;;;;;3.07;100.00;101516.25;5044982;28;20061;-73
2023/11/17 00:22:11;;;;;;;37.28;23.52;;;;;;;3.03;100.00;101514.31;5046908;28;20072;-73
2023/11/17 00:24:36;;;;;;;39.53;24.25;;;;;;;2.99;100.00;101522.84;5046013;28;20068;-72
2023/11/17 00:27:02;;;;;;;37.05;23.00;;;;;;;2.95;100.00;101520.91;5044376;28;20040;-73
2023/11/17 00:29:27;;;;;;;38.30;23.52;;;;;;;3.00;100.00;101523.72;5046845;28;20065;-73
2023/11/17 00:31:52;;;;;;;36.42;22.77;;;;;;;3.01;100.00;101523.78;5044518;28;20029;-72
2023/11/17 00:34:18;;;;;;;35.10;21.80;;;;;;;3.02;100.00;101533.41;5047629;28;20052;-73
2023/11/17 00:36:46;;;;;;;35.92;23.05;;;;;;;2.98;100.00;101531.47;5044933;28;20021;-73
2023/11/17 00:39:14;;;;;;;37.30;23.60;;;;;;;2.99;100.00;101537.63;5046937;28;20103;-73
2023/11/17 00:41:41;;;;;;;40.70;24.52;;;;;;;2.93;100.00;101538.22;5045018;28;20037;-74
2023/11/17 00:44:07;;;;;;;39.67;25.00;;;;;;;2.94;100.00;101537.38;5045881;28;20025;-72
2023/11/17 00:46:33;;;;;;;41.22;25.00;;;;;;;2.90;100.00;101533.75;5046053;28;20029;-73
2023/11/17 00:48:59;;;;;;;38.53;23.83;;;;;;;2.88;100.00;101542.31;5044799;28;20492;-73
2023/11/17 00:51:25;;;;;;;39.80;24.40;;;;;;;2.87;100.00;101543.13;5046849;28;20029;-72
2023/11/17 00:53:51;;;;;;;40.35;25.50;;;;;;;2.86;100.00;101543.97;5043991;28;20499;-73
2023/11/17 00:56:18;;;;;;;41.63;25.73;;;;;;;2.90;100.00;101554.63;5047166;28;20033;-72
2023/11/17 00:58:45;;;;;;;37.80;24.65;;;;;;;2.88;100.00;101553.66;5044241;28;20021;-73
2023/11/17 01:01:11;;;;;;;37.00;24.05;;;;;;;2.89;100.00;101549.34;5046495;28;20038;-73
2023/11/17 01:03:36;;;;;;;36.63;24.38;;;;;;;2.91;100.00;101550.31;5045092;28;20041;-73
2023/11/17 01:06:02;;;;;;;36.85;23.90;;;;;;;2.93;100.00;101553.91;5045070;28;20040;-73
2023/11/17 01:08:28;;;;;;;36.35;24.15;;;;;;;2.92;100.00;101552.97;5046463;28;20025;-73
2023/11/17 01:10:54;;;;;;;37.15;23.42;;;;;;;2.97;100.00;101555.81;5042408;28;20080;-75
2023/11/17 01:13:20;;;;;;;36.47;24.77;;;;;;;2.99;100.00;101563.75;5046851;28;20036;-75
2023/11/17 01:15:45;;;;;;;39.35;24.42;;;;;;;3.00;100.00;101562.91;5043845;28;20033;-75
2023/11/17 01:18:11;;;;;;;38.05;25.25;;;;;;;3.01;100.00;101570.81;5045880;28;20028;-75
2023/11/17 01:20:40;;;;;;;38.25;24.90;;;;;;;3.01;100.00;101562.97;5044775;28;20056;-74
2023/11/17 01:23:07;;;;;;;36.08;22.83;;;;;;;3.01;100.00;101565.56;5043967;28;20407;-75
2023/11/17 01:25:33;;;;;;;35.30;22.45;;;;;;;3.03;100.00;101569.19;5044275;28;20029;-74
2023/11/17 01:28:00;;;;;;;39.97;25.90;;;;;;;3.02;100.00;101570.00;5044042;28;20029;-75
2023/11/17 01:30:25;;;;;;;41.08;26.45;;;;;;;3.08;100.00;101575.50;5046427;28;20029;-75
2023/11/17 01:32:51;;;;;;;37.42;24.92;;;;;;;3.09;100.00;101576.41;5043056;28;20032;-74
2023/11/17 01:35:17;;;;;;;37.75;24.70;;;;;;;3.08;100.00;101569.38;5046367;28;20040;-74
2023/11/17 01:37:43;;;;;;;37.85;25.00;;;;;;;3.09;100.00;101576.41;5043589;28;20416;-75
2023/11/17 01:40:10;;;;;;;36.83;23.23;;;;;;;3.06;100.00;101581.47;5045154;28;20488;-75
2023/11/17 01:42:39;;;;;;;39.13;25.02;;;;;;;3.04;100.00;101576.16;5044481;28;20045;-74
2023/11/17 01:45:08;;;;;;;42.15;25.08;;;;;;;3.04;100.00;101573.56;5044734;28;20113;-74
2023/11/17 01:47:39;;;;;;;40.83;26.23;;;;;;;3.04;100.00;101572.66;5027500;28;20057;-75
2023/11/17 01:50:11;;;;;;;39.00;25.35;;;;;;;3.07;100.00;101580.66;5044436;28;20104;-74
2023/11/17 01:52:38;;;;;;;39.38;24.58;;;;;;;3.03;100.00;101582.25;5044392;28;20093;-75
2023/11/17 01:55:05;;;;;;;35.88;23.15;;;;;;;3.04;100.00;101588.34;5044149;28;20108;-73
2023/11/17 01:57:34;;;;;;;36.88;22.92;;;;;;;2.93;100.00;101590.47;5044998;28;20017;-73
2023/11/17 01:59:59;;;;;;;35.70;22.60;;;;;;;2.94;100.00;101592.22;5043710;28;20030;-73
2023/11/17 02:02:26;;;;;;;35.80;22.55;;;;;;;2.88;100.00;101595.44;5046225;28;20061;-73
2023/11/17 02:04:52;;;;;;;37.65;24.67;;;;;;;2.90;100.00;101590.31;5042489;28;20041;-73
2023/11/17 02:07:24;;;;;;;38.20;24.23;;;;;;;2.94;100.00;101593.16;5046001;28;20037;-73
2023/11/17 02:10:07;;;;;;;37.10;23.23;;;;;;;2.94;100.00;101592.22;5039043;28;20019;-73
2023/11/17 02:12:46;;;;;;;39.38;25.63;;;;;;;2.96;100.00;101593.22;5041571;28;20033;-73
2023/11/17 02:15:14;;;;;;;38.65;25.25;;;;;;;2.96;100.00;101588.00;5043187;28;20028;-73
2023/11/17 02:17:43;;;;;;;39.03;25.17;;;;;;;2.96;100.00;101590.59;5044519;28;20103;-72
2023/11/17 02:20:12;;;;;;;42.55;27.15;;;;;;;2.95;100.00;101596.66;5044003;28;20025;-73
2023/11/17 02:22:45;;;;;;;43.05;27.90;;;;;;;2.94;100.00;101601.00;5044280;28;20029;-73
2023/11/17 02:25:36;;;;;;;41.65;27.17;;;;;;;2.95;100.00;101599.25;5043035;28;20040;-73
2023/11/17 02:28:12;;;;;;;41.90;26.80;;;;;;;2.91;100.00;101593.00;5041029;28;20026;-73
2023/11/17 02:30:41;;;;;;;45.53;28.27;;;;;;;2.90;100.00;101606.88;5043488;28;20021;-72
2023/11/17 02:33:10;;;;;;;41.45;27.60;;;;;;;2.93;100.00;101603.53;5042440;28;20033;-72
2023/11/17 02:35:36;;;;;;;38.38;25.63;;;;;;;2.90;100.00;101608.59;5043669;28;20387;-72
2023/11/17 02:38:05;;;;;;;39.55;26.13;;;;;;;2.88;100.00;101607.63;5042827;28;20041;-74
2023/11/17 02:40:31;;;;;;;39.50;25.67;;;;;;;2.82;100.00;101596.88;5044348;28;20033;-74
2023/11/17 02:42:58;;;;;;;41.88;27.33;;;;;;;2.84;100.00;101592.63;5042400;28;20030;-74
2023/11/17 02:45:25;;;;;;;38.75;26.08;;;;;;;2.79;100.00;101593.28;5045126;28;20032;-74
2023/11/17 02:47:51;;;;;;;39.17;26.15;;;;;;;2.76;100.00;101594.88;5041793;28;20485;-74
2023/11/17 02:50:22;;;;;;;40.45;26.45;;;;;;;2.71;100.00;101598.97;5045304;28;20032;-74
2023/11/17 02:55:37;;;;;;;40.42;24.75;;;;;;;2.70;100.00;101592.84;5040599;28;20083;-74
2023/11/17 02:58:04;;;;;;;38.50;25.52;;;;;;;2.69;100.00;101598.88;5043652;28;20025;-74
2023/11/17 03:00:30;;;;;;;36.15;23.08;;;;;;;2.67;100.00;101597.94;5041105;28;20021;-74
2023/11/17 03:02:57;;;;;;;34.70;23.02;;;;;;;2.66;100.00;101593.53;5044650;28;20037;-75
2023/11/17 03:05:24;;;;;;;37.15;23.90;;;;;;;2.69;100.00;101601.50;5040170;28;20025;-74
2023/11/17 03:07:49;;;;;;;35.90;24.13;;;;;;;2.75;100.00;101600.91;5037500;28;20030;-74
2023/11/17 03:10:15;;;;;;;38.35;25.45;;;;;;;2.78;100.00;101601.06;5044396;28;20090;-74
2023/11/17 03:12:40;;;;;;;37.55;24.75;;;;;;;2.81;100.00;101602.91;5042304;28;20039;-74
2023/11/17 03:15:09;;;;;;;39.13;24.75;;;;;;;2.81;100.00;101600.31;5042977;28;20057;-74
2023/11/17 03:17:41;;;;;;;41.03;25.75;;;;;;;2.82;100.00;101599.50;5043275;28;20037;-74
2023/11/17 03:20:14;;;;;;;39.35;25.77;;;;;;;2.83;100.00;101593.47;5042921;28;20106;-74
2023/11/17 03:22:44;;;;;;;40.47;26.85;;;;;;;2.85;100.00;101592.69;5042361;28;20032;-74
2023/11/17 03:25:15;;;;;;;38.97;25.52;;;;;;;2.90;100.00;101595.56;5043417;28;20026;-75
2023/11/17 03:27:47;;;;;;;38.38;25.33;;;;;;;2.84;100.00;101597.84;5041338;28;20476;-74
2023/11/17 03:30:17;;;;;;;39.88;25.98;;;;;;;2.79;100.00;101595.00;5043572;28;20032;-74
2023/11/17 03:32:46;;;;;;;39.45;25.63;;;;;;;2.80;100.00;101599.44;5041741;28;20029;-72
2023/11/17 03:35:12;;;;;;;40.38;26.10;;;;;;;2.84;100.00;101590.00;5043842;28;20025;-72
2023/11/17 03:37:38;;;;;;;39.70;25.98;;;;;;;2.86;100.00;101588.38;5042612;28;20427;-72
2023/11/17 03:40:11;;;;;;;41.00;26.42;;;;;;;2.86;100.00;101584.03;5042232;28;20449;-73
2023/11/17 03:42:37;;;;;;;42.47;27.70;;;;;;;2.84;100.00;101590.94;5043040;28;20441;-72
2023/11/17 03:45:07;;;;;;;40.53;27.60;;;;;;;2.86;100.00;101589.28;5042192;28;20032;-73
2023/11/17 03:47:36;;;;;;;41.72;27.73;;;;;;;2.91;100.00;101589.47;5042464;28;20037;-73
2023/11/17 03:50:03;;;;;;;42.70;27.85;;;;;;;2.88;100.00;101587.59;5041917;28;20048;-72
2023/11/17 03:52:31;;;;;;;43.05;28.65;;;;;;;2.90;100.00;101595.56;5043685;28;20032;-72
2023/11/17 03:55:00;;;;;;;41.85;27.35;;;;;;;2.92;100.00;101600.00;5041063;28;20029;-72
2023/11/17 03:57:26;;;;;;;41.10;28.25;;;;;;;2.97;100.00;101593.28;5043968;28;20033;-73
2023/11/17 03:59:53;;;;;;;41.85;27.92;;;;;;;3.01;100.00;101601.28;5041244;28;20490;-73
2023/11/17 04:02:22;;;;;;;41.28;28.20;;;;;;;3.03;100.00;101603.13;5042801;28;20419;-73
2023/11/17 04:04:48;;;;;;;42.10;28.42;;;;;;;3.05;100.00;101597.97;5039590;28;20034;-73
2023/11/17 04:07:13;;;;;;;43.75;28.10;;;;;;;3.08;100.00;101599.00;5043468;28;20488;-73
2023/11/17 04:09:39;;;;;;;41.58;28.52;;;;;;;3.08;100.00;101596.41;5042082;28;20028;-73
2023/11/17 04:12:09;;;;;;;41.15;28.42;;;;;;;3.12;100.00;101598.34;5042172;28;20044;-73
2023/11/17 04:14:39;;;;;;;42.00;27.70;;;;;;;3.13;100.00;101589.69;5042801;28;20104;-73
2023/11/17 04:17:05;;;;;;;42.45;28.92;;;;;;;3.14;100.00;101591.44;5041865;28;20108;-73
2023/11/17 04:19:31;;;;;;;44.17;28.70;;;;;;;3.16;100.00;101590.63;5043147;28;20056;-73
2023/11/17 04:21:57;;;;;;;42.53;27.77;;;;;;;3.16;100.00;101594.16;5040893;28;20034;-73
2023/11/17 04:24:22;;;;;;;42.10;27.65;;;;;;;3.19;100.00;101591.69;5043903;28;20538;-73
2023/11/17 04:26:48;;;;;;;41.30;27.80;;;;;;;3.25;100.00;101593.69;5040783;28;20033;-73
2023/11/17 04:29:14;;;;;;;45.40;28.67;;;;;;;3.22;100.00;101585.69;5043179;28;20378;-73
2023/11/17 04:31:40;;;;;;;45.60;28.60;;;;;;;3.22;100.00;101593.53;5041742;28;20031;-73
2023/11/17 04:34:05;;;;;;;42.50;28.23;;;;;;;3.24;100.00;101603.22;5041900;28;20041;-73
2023/11/17 04:36:34;;;;;;;42.17;26.83;;;;;;;3.27;100.00;101607.72;5041805;28;20032;-73
2023/11/17 04:39:01;;;;;;;40.30;27.20;;;;;;;3.24;100.00;101598.00;5040881;28;20053;-72
2023/11/17 04:41:27;;;;;;;41.92;28.02;;;;;;;3.24;100.00;101592.78;5043578;28;20020;-73
2023/11/17 04:43:52;;;;;;;40.97;27.00;;;;;;;3.25;100.00;101588.47;5040783;28;20075;-72
2023/11/17 04:46:21;;;;;;;42.80;28.23;;;;;;;3.27;100.00;101592.91;5043662;28;20025;-73
2023/11/17 04:48:47;;;;;;;43.08;28.92;;;;;;;3.28;100.00;101593.84;5040650;28;20377;-73
2023/11/17 04:51:13;;;;;;;42.42;27.67;;;;;;;3.30;100.00;101602.63;5042857;28;20033;-73
2023/11/17 04:53:39;;;;;;;43.42;28.40;;;;;;;3.27;100.00;101603.38;5041831;28;20033;-73
2023/11/17 04:56:05;;;;;;;41.42;27.80;;;;;;;3.29;100.00;101604.34;5041528;28;20029;-73
2023/11/17 04:58:30;;;;;;;44.03;29.00;;;;;;;3.26;100.00;101606.81;5043280;28;20056;-73
2023/11/17 05:00:56;;;;;;;43.90;28.60;;;;;;;3.28;100.00;101609.50;5042944;28;20473;-73
2023/11/17 05:03:23;;;;;;;41.10;27.92;;;;;;;3.33;100.00;101613.22;5047191;28;20025;-73
2023/11/17 05:05:49;;;;;;;41.95;28.20;;;;;;;3.36;100.00;101605.50;5044116;28;20030;-73
2023/11/17 05:08:16;;;;;;;42.40;28.20;;;;;;;3.39;100.00;101607.38;5046366;28;20029;-74
2023/11/17 05:10:42;;;;;;;41.55;28.65;;;;;;;3.38;100.00;101608.19;5044731;28;20036;-74
2023/11/17 05:13:08;;;;;;;43.80;28.85;;;;;;;3.39;100.00;101612.59;5045351;28;20129;-73
2023/11/17 05:15:33;;;;;;;43.05;28.50;;;;;;;3.39;100.00;101613.47;5045996;28;20041;-72
2023/11/17 05:17:58;;;;;;;42.40;29.05;;;;;;;3.43;100.00;101614.53;5044074;28;20022;-73
2023/11/17 05:20:24;;;;;;;44.05;30.40;;;;;;;3.44;100.00;101609.38;5046849;28;20472;-73
2023/11/17 05:22:54;;;;;;;44.33;30.17;;;;;;;3.46;100.00;101615.56;5043317;28;20150;-73
2023/11/17 05:25:20;;;;;;;44.58;30.85;;;;;;;3.49;100.00;101623.56;5046586;28;20018;-74
2023/11/17 05:27:49;;;;;;;44.97;30.63;;;;;;;3.52;100.00;101624.53;5044056;28;20040;-72
2023/11/17 05:30:18;;;;;;;44.20;30.65;;;;;;;3.56;100.00;101619.50;5045782;28;20053;-73
2023/11/17 05:32:44;;;;;;;45.80;30.77;;;;;;;3.56;100.00;101622.09;5044005;28;20037;-72
2023/11/17 05:35:10;;;;;;;43.33;29.63;;;;;;;3.59;100.00;101626.59;5045202;28;20108;-72
2023/11/17 05:37:36;;;;;;;42.15;29.08;;;;;;;3.60;100.00;101629.28;5044821;28;20029;-73
2023/11/17 05:40:03;;;;;;;45.42;30.08;;;;;;;3.63;100.00;101625.91;5042700;28;20103;-73
2023/11/17 05:42:28;;;;;;;43.70;30.98;;;;;;;3.63;100.00;101628.53;5046042;28;20029;-72
2023/11/17 05:44:54;;;;;;;44.92;31.35;;;;;;;3.65;100.00;101629.47;5042934;28;20468;-72
2023/11/17 05:47:21;;;;;;;43.20;30.00;;;;;;;3.67;100.00;101625.22;5046220;28;20440;-74
2023/11/17 05:49:47;;;;;;;48.10;31.50;;;;;;;3.67;100.00;101622.63;5043559;28;20038;-73
2023/11/17 05:52:14;;;;;;;45.47;30.38;;;;;;;3.66;100.00;101623.44;5044978;28;20028;-73
2023/11/17 05:54:44;;;;;;;43.15;30.23;;;;;;;3.67;100.00;101622.63;5042826;28;20479;-73
2023/11/17 05:57:17;;;;;;;44.95;30.83;;;;;;;3.70;100.00;101632.28;5044824;28;20093;-73
2023/11/17 05:59:44;;;;;;;45.67;29.92;;;;;;;3.71;100.00;101636.72;5043765;28;20029;-73
2023/11/17 06:02:10;;;;;;;44.60;31.63;;;;;;;3.70;100.00;101637.53;5044571;28;20087;-74
2023/11/17 06:04:36;;;;;;;47.70;32.75;;;;;;;3.68;100.00;101629.59;5044773;28;20024;-73
2023/11/17 06:07:02;;;;;;;48.15;32.72;;;;;;;3.68;100.00;101637.44;5043322;28;20370;-73
2023/11/17 06:09:28;;;;;;;44.72;31.02;;;;;;;3.69;100.00;101634.03;5045611;28;20025;-74
2023/11/17 06:11:57;;;;;;;48.17;31.65;;;;;;;3.71;100.00;101639.31;5042040;28;20144;-74
2023/11/17 06:14:23;;;;;;;47.03;32.38;;;;;;;3.72;100.00;101639.38;5038522;28;20484;-73
2023/11/17 06:16:53;;;;;;;47.47;32.28;;;;;;;3.75;100.00;101639.53;5045285;28;20036;-74
2023/11/17 06:19:18;;;;;;;48.03;33.33;;;;;;;3.76;100.00;101637.81;5042694;28;20104;-73
2023/11/17 06:21:44;;;;;;;49.00;33.63;;;;;;;3.76;100.00;101643.06;5044519;28;20057;-74
2023/11/17 06:24:09;;;;;;;57.88;35.35;;;;;;;3.78;100.00;101644.00;5043648;28;20036;-73
2023/11/17 06:26:35;;;;;;;49.78;34.08;;;;;;;3.80;100.00;101645.88;5043518;28;20041;-74
2023/11/17 06:29:00;;;;;;;51.22;33.72;;;;;;;3.81;100.00;101655.47;5045099;28;20033;-74
2023/11/17 06:31:27;;;;;;;48.65;33.40;;;;;;;3.80;100.00;101651.09;5042024;28;20057;-74
2023/11/17 06:33:53;;;;;;;51.78;33.65;;;;;;;3.81;100.00;101651.97;5038167;28;20029;-74
2023/11/17 06:36:19;;;;;;;510.40;81.53;;;;;;;3.80;100.00;101651.09;5044960;28;20029;-74
2023/11/17 06:38:47;;;;;;;61.53;35.63;;;;;;;3.82;100.00;101656.41;5042528;28;20076;-74
2023/11/17 06:41:13;;;;;;;51.33;35.38;;;;;;;3.83;100.00;101661.69;5043043;28;20076;-74
2023/11/17 06:43:39;;;;;;;49.85;34.80;;;;;;;3.84;100.00;101663.50;5043325;28;20057;-75
2023/11/17 06:46:07;;;;;;;51.67;34.45;;;;;;;3.86;100.00;101654.78;5043010;28;20068;-74
2023/11/17 06:48:33;;;;;;;52.88;36.15;;;;;;;3.88;100.00;101663.63;5043079;28;20021;-74
2023/11/17 06:50:58;;;;;;;50.25;34.42;;;;;;;3.89;100.00;101668.94;5040640;28;20124;-74
2023/11/17 06:53:24;;;;;;;53.70;36.05;;;;;;;3.88;100.00;101671.47;5044827;28;20480;-74
2023/11/17 06:55:50;;;;;;;50.40;35.13;;;;;;;3.89;100.00;101673.25;5041888;28;20026;-74
2023/11/17 06:58:15;;;;;;;53.53;36.17;;;;;;;3.92;100.00;101668.19;5044091;28;20041;-74
2023/11/17 07:00:42;;;;;;;54.28;37.08;;;;;;;3.93;100.00;101677.78;5042911;28;20031;-73
2023/11/17 07:03:08;;;;;;;54.22;35.97;;;;;;;3.92;100.00;101678.63;5041975;28;20059;-74
2023/11/17 07:05:34;;;;;;;54.20;37.00;;;;;;;3.90;100.00;101680.28;5043821;28;20479;-75
2023/11/17 07:08:01;;;;;;;53.92;37.08;;;;;;;3.91;100.00;101684.69;5024077;28;20033;-75
2023/11/17 07:10:29;;;;;;;58.38;38.22;;;;;;;3.90;100.00;101680.28;5045077;28;20100;-75
2023/11/17 07:12:54;;;;;;;58.63;39.25;;;;;;;3.93;100.00;101685.63;5036624;28;20037;-75
2023/11/17 07:15:20;;;;;;;58.35;38.45;;;;;;;3.95;100.00;101690.13;5044453;28;20037;-75
2023/11/17 07:17:45;;;;;;;60.53;40.30;;;;;;;3.97;100.00;101690.19;5042157;28;20033;-75
2023/11/17 07:20:11;;;;;;;57.75;40.13;;;;;;;4.02;100.00;101696.53;5041948;28;20491;-75
2023/11/17 07:22:38;;;;;;;59.67;40.65;;;;;;;4.05;100.00;101699.28;5042500;28;20029;-75
2023/11/17 07:25:04;;;;;;;67.50;41.47;;;;;;;4.07;100.00;101700.25;5040780;28;20083;-75
2023/11/17 07:27:29;;;;;;;66.90;43.13;;;;;;;4.11;100.00;101702.16;5044050;28;20468;-75
2023/11/17 07:29:55;;;;;;;68.63;43.55;;;;;;;4.17;100.00;101699.81;5039885;28;20048;-75
2023/11/17 07:32:20;;;;;;;69.70;43.75;;;;;;;4.27;100.00;101708.09;5044060;28;20060;-75
2023/11/17 07:34:46;;;;;;;73.35;43.67;;;;;;;4.29;100.00;101702.06;5041717;28;20029;-75
2023/11/17 07:37:12;;;;;;;75.07;45.00;;;;;;;4.31;100.00;101699.50;5043167;28;20140;-75
2023/11/17 07:39:37;;;;;;;73.45;44.53;;;;;;;4.35;100.00;101701.44;5042742;28;20076;-75
2023/11/17 07:42:04;;;;;;;70.55;43.58;;;;;;;4.40;100.00;101705.16;5040385;28;20060;-75
2023/11/17 07:44:30;;;;;;;75.57;44.40;;;;;;;4.43;100.00;101699.19;5043974;28;20025;-75
2023/11/17 07:46:58;;;;;;;86.30;46.55;;;;;;;4.43;100.00;101704.41;5040873;28;20150;-76
2023/11/17 07:49:25;;;;;;;94.70;49.25;;;;;;;4.46;100.00;101707.16;5036910;28;20022;-75
2023/11/17 07:51:51;;;;;;;93.95;49.47;;;;;;;4.49;100.00;101699.44;5044003;28;20032;-75
2023/11/17 07:54:17;;;;;;;99.78;49.20;;;;;;;4.52;100.00;101704.81;5041500;28;20118;-75
2023/11/17 07:56:42;;;;;;;123.07;52.80;;;;;;;4.54;100.00;101698.81;5042790;28;20491;-75
2023/11/17 07:59:10;;;;;;;122.07;53.15;;;;;;;4.58;100.00;101705.06;5043111;28;20053;-75
2023/11/17 08:01:36;;;;;;;112.20;51.22;;;;;;;4.59;100.00;101700.69;5041776;28;20040;-75
2023/11/17 08:04:01;;;;;;;179.40;59.17;;;;;;;4.60;100.00;101708.66;5043410;28;20025;-75
2023/11/17 08:06:27;;;;;;;101.78;50.25;;;;;;;4.61;100.00;101707.81;5040812;28;20163;-75
2023/11/17 08:08:53;;;;;;;105.45;49.95;;;;;;;4.65;100.00;101719.31;5036605;28;20469;-74
2023/11/17 08:11:19;;;;;;;103.65;50.95;;;;;;;4.64;100.00;101717.53;5043509;28;20033;-75
2023/11/17 08:13:44;;;;;;;105.53;50.38;;;;;;;4.66;100.00;101723.72;5042024;28;20033;-75
2023/11/17 08:16:10;;;;;;;108.47;50.00;;;;;;;4.68;100.00;101722.94;5042238;28;20033;-75
2023/11/17 08:18:37;;;;;;;107.82;49.92;;;;;;;4.71;100.00;101728.31;5042722;28;20404;-75
2023/11/17 08:21:05;;;;;;;108.22;50.95;;;;;;;4.74;100.00;101735.41;5041409;28;20175;-75
2023/11/17 08:23:30;;;;;;;101.20;50.10;;;;;;;4.79;100.00;101728.66;5043518;28;20087;-75
2023/11/17 08:25:56;;;;;;;111.93;53.28;;;;;;;4.83;100.00;101733.16;5040420;28;20033;-75
2023/11/17 08:28:22;;;;;;;110.38;51.45;;;;;;;4.88;100.00;101730.78;5043942;28;20094;-74
2023/11/17 08:30:48;;;;;;;107.95;52.10;;;;;;;4.95;100.00;101742.38;5040946;28;20187;-75
2023/11/17 08:33:13;;;;;;;105.32;51.40;;;;;;;4.97;100.00;101739.00;5042747;28;20065;-75
2023/11/17 08:35:39;;;;;;;118.72;51.63;;;;;;;5.07;100.00;101745.53;5046099;28;20060;-75
2023/11/17 08:38:06;;;;;;;103.32;50.28;;;;;;;5.11;100.00;101742.22;5044934;28;20029;-75
2023/11/17 08:40:32;;;;;;;100.50;50.47;;;;;;;5.21;100.00;101741.75;5047172;28;20443;-75
2023/11/17 08:42:58;;;;;;;101.55;49.75;;;;;;;5.21;100.00;101739.13;5044298;28;20076;-74
2023/11/17 08:45:24;;;;;;;94.90;50.33;;;;;;;5.22;100.00;101738.28;5047477;28;20479;-74
2023/11/17 08:47:49;;;;;;;101.97;50.80;;;;;;;5.25;100.00;101748.00;5044539;28;20056;-74
2023/11/17 08:50:15;;;;;;;99.10;50.53;;;;;;;5.27;100.00;101748.06;5046298;28;20068;-74
2023/11/17 08:52:43;;;;;;;98.80;51.17;;;;;;;5.33;100.00;101750.91;5031783;28;20128;-74
2023/11/17 08:55:13;;;;;;;95.13;51.85;;;;;;;5.30;100.00;101753.41;5061219;28;20480;-75
2023/11/17 08:57:44;;;;;;;96.85;51.22;;;;;;;5.34;100.00;101750.09;5028216;28;20029;-75
2023/11/17 09:00:18;;;;;;;97.55;50.40;;;;;;;5.33;100.00;101764.94;5029960;28;20022;-73
2023/11/17 09:02:50;;;;;;;95.25;49.25;;;;;;;5.41;100.00;101760.00;5029909;28;20029;-75
2023/11/17 09:05:17;;;;;;;;;;;;;;;5.52;100.00;101763.03;5033343;28;20541;-75
2023/11/17 09:07:44;;;;;;;428.48;91.22;;;;;;;5.44;100.00;101764.47;5043853;28;19913;-75
2023/11/17 09:10:14;;;;;;;111.70;53.90;;;;;;;5.42;100.00;101767.03;5046917;28;20021;-75
2023/11/17 09:12:42;;;;;;;95.18;52.90;;;;;;;5.35;100.00;101770.25;5043366;28;20033;-75
2023/11/17 09:15:18;;;;;;;105.55;55.03;;;;;;;5.36;100.00;101772.94;5036354;28;20022;-75
2023/11/17 09:17:47;;;;;;;133.10;58.42;;;;;;;5.46;100.00;101778.53;5035570;28;20033;-75
2023/11/17 09:20:13;;;;;;;124.00;59.97;;;;;;;5.72;100.00;101787.44;5036973;28;20022;-75
2023/11/17 09:22:42;;;;;;;835.72;159.32;;;;;;;6.14;100.00;101791.69;5040089;28;20495;-75
2023/11/17 09:25:13;;;;;;;155.15;68.75;;;;;;;6.67;100.00;101789.22;5043552;28;20029;-75
2023/11/17 09:27:47;;;;;;;121.45;65.57;;;;;;;6.94;100.00;101792.81;5046208;28;20025;-73
2023/11/17 09:30:14;;;;;;;193.55;75.82;;;;;;;7.74;100.00;101798.91;5043977;28;20480;-73
2023/11/17 09:32:48;;;;;;;117.38;61.80;;;;;;;7.67;100.00;101810.97;5044873;28;20029;-73
2023/11/17 09:35:18;;;;;;;92.82;53.97;;;;;;;7.35;100.00;101812.56;5044166;28;20029;-73
2023/11/17 09:38:04;;;;;;;141.43;57.10;;;;;;;7.57;100.00;101814.16;5045362;28;20040;-73
2023/11/17 09:40:33;;;;;;;80.85;49.72;;;;;;;7.29;100.00;101829.94;5045752;28;20132;-74
2023/11/17 09:43:36;;;;;;;344.67;78.28;;;;;;;7.95;100.00;101838.16;5040502;28;20030;-73
2023/11/17 09:46:02;;;;;;;69.65;46.67;;;;;;;8.45;100.00;101835.31;5005370;28;20088;-74
2023/11/17 09:48:29;;;;;;;59.47;41.95;;;;;;;8.48;100.00;101835.38;5038321;28;20465;-73
2023/11/17 09:50:56;;;;;;;54.38;37.78;;;;;;;8.47;100.00;101838.88;5036332;28;20084;-75
2023/11/17 09:53:23;;;;;;;53.97;37.50;;;;;;;8.59;100.00;101836.59;5036375;28;20036;-73
2023/11/17 09:55:52;;;;;;;48.45;34.58;;;;;;;8.52;100.00;101842.53;5042986;28;20026;-73
2023/11/17 09:58:18;;;;;;;49.03;34.20;;;;;;;9.02;100.00;101842.16;5044943;28;20033;-73
2023/11/17 10:00:45;;;;;;;45.70;32.05;;;;;;;9.85;100.00;101841.56;5037880;28;20038;-73
2023/11/17 10:03:13;;;;;;;40.30;27.30;;;;;;;10.78;100.00;101843.56;5035942;28;20026;-74
2023/11/17 10:05:40;;;;;;;36.78;25.55;;;;;;;11.81;100.00;101840.03;5036385;28;20032;-73
2023/11/17 10:08:07;;;;;;;33.63;22.63;;;;;;;12.41;100.00;101833.78;5042376;28;20139;-74
2023/11/17 10:10:38;;;;;;;32.47;21.70;;;;;;;12.64;100.00;101811.09;5044649;28;20127;-74
2023/11/17 10:13:11;;;;;;;33.25;22.55;;;;;;;13.05;100.00;101804.44;5043232;28;20499;-73
2023/11/17 10:15:41;;;;;;;31.67;20.50;;;;;;;13.24;100.00;101803.72;5044001;28;20507;-74
2023/11/17 10:18:07;;;;;;;31.83;21.67;;;;;;;13.71;100.00;101799.66;5042680;28;20026;-73
2023/11/17 10:20:37;;;;;;;31.65;21.05;;;;;;;14.60;100.00;101807.16;5044550;28;20052;-73
2023/11/17 10:23:04;;;;;;;30.80;20.35;;;;;;;14.93;100.00;101805.53;5043466;28;20040;-73
2023/11/17 10:25:30;;;;;;;29.73;18.75;;;;;;;15.34;100.00;101803.78;5044450;28;20048;-73
2023/11/17 10:27:57;;;;;;;29.65;18.80;;;;;;;15.49;100.00;101802.88;5042862;28;20057;-73
2023/11/17 10:30:32;;;;;;;25.00;12.45;;;;;;;15.08;100.00;101811.75;5043232;28;20180;-73
2023/11/17 10:33:12;;;;;;;25.92;14.85;;;;;;;15.05;100.00;101807.31;5042529;28;20553;-73
2023/11/17 10:35:37;;;;;;;23.52;11.45;;;;;;;15.28;100.00;101812.66;5044878;28;20379;-73
2023/11/17 10:38:05;;;;;;;25.10;12.73;;;;;;;16.08;100.00;101811.69;5043109;28;20044;-73
2023/11/17 10:40:31;;;;;;;23.77;11.70;;;;;;;16.15;100.00;101817.84;5044048;28;20473;-73
2023/11/17 10:43:07;;;;;;;24.20;12.85;;;;;;;16.54;100.00;101818.59;5043741;28;20029;-75
2023/11/17 10:45:33;;;;;;;25.13;12.60;;;;;;;16.49;100.00;101823.09;5044020;28;20052;-76
2023/11/17 10:47:59;;;;;;;26.05;13.60;;;;;;;16.26;100.00;101824.06;5043705;28;20025;-75
2023/11/17 10:50:28;;;;;;;24.63;13.05;;;;;;;16.36;100.00;101827.56;5043177;28;20037;-76
2023/11/17 10:52:55;;;;;;;25.77;14.43;;;;;;;16.53;100.00;101827.50;5043906;28;20412;-75
2023/11/17 10:55:35;;;;;;;23.98;12.05;;;;;;;16.94;100.00;101822.88;5042206;28;20036;-75
2023/11/17 10:58:07;;;;;;;23.80;11.15;;;;;;;16.48;100.00;101827.50;5043165;28;20381;-75
2023/11/17 11:00:38;;;;;;;22.30;10.48;;;;;;;16.42;100.00;101824.00;5042680;28;20132;-75
2023/11/17 11:03:09;;;;;;;24.20;11.65;;;;;;;15.23;100.00;101833.09;5042783;28;20021;-75
2023/11/17 11:05:38;;;;;;;23.13;10.80;;;;;;;13.93;100.00;101827.25;5043989;28;20047;-75
2023/11/17 11:08:11;;;;;;;23.88;12.63;;;;;;;13.46;100.00;101829.63;5042635;28;20025;-75
2023/11/17 11:10:37;;;;;;;25.90;13.32;;;;;;;13.01;100.00;101831.81;5044361;28;20538;-75